map of MLB home
MLB - Airport
Location
City:  Melbourne, Florida, United States
Name:Melbourne International Airport
ICAO:KMLB
IATA:MLB
FAA LID:MLB

Details
Type:Airport (Part 139 Class I)
Use:Public/Civil
Latitude:2806'10"N (28.102750)
Longitude:8038'43"W (-80.645249)
Datum:WGS 1984
Elevation:33 ft (10 m)
Variation:6.73W (WMM2015 magnetic declination)
-0.09 annual change
Runways:3
Longest:10181 × 150 ft (3103 × 45.5 m), paved

Time
Time Zone:UTC-5 (DST-4)
Local Time:

Weather
METAR:KMLB 222253Z 12012KT 10SM CLR 29/23 A3004 RMK AO2 SLP172 T02940233
TAF:KMLB 222326Z 2300/2324 13010KT P6SM FEW250
FM230600 13005KT P6SM FEW025
FM231400 13010KT P6SM SCT030
FM231800 12012G18KT P6SM SCT040

Related Locations
Nearby:
Farthest:USL: 11571 mi / 18622 km
Useless Loop, WA, AU

Find:

   beyond  
but within

Other Information
Maps:
Delays:
NOTAMs:
Links:
Sources:

  
flag of United States
flag of Florida
  

Airport Diagram

Airport diagram for MLB

Airport diagram PDF

Sectional Chart

Flight Planning
at skyvector.com

Satellite Image

Google Maps Satellite view

 

Copyright © 2004-2017 Karl L. Swartz. All rights reserved.
The Great Circle Mapper name and logo are trademarks of the Great Circle Mapper.
All other trademarks mentioned herein belong to their respective owners.
Please see credits for attibutions and further copyright information.

  Follow gcmap on Facebook Follow gcmap on Twitter Follow gcmap on Google+ GCmap on LinkedIn

hCard Microformat

Geo Microformat